Time;durP1;ratioP1;P1;durP2;ratioP2;P2;SDS_P1;SDS_P2;PMS_P1;PMS_P2;Temp;Humidity;BMP_temperature;BMP_pressure;BME280_temperature;BME280_humidity;BME280_pressure;Samples;Min_cycle;Max_cycle;Signal;HPM_P1;HPM_P2
2022/07/23 00:00:40;;;;;;;1.95;1.55;;;;;;;;;;7313213;19;154566;-14
2022/07/23 00:03:13;;;;;;;3.22;2.22;;;;;;;;;;7312503;19;154345;-15
2022/07/23 00:05:45;;;;;;;3.47;1.80;;;;;;;;;;7312429;19;162349;-15
2022/07/23 00:08:16;;;;;;;4.10;2.05;;;;;;;;;;7312144;19;162876;-16
2022/07/23 00:10:47;;;;;;;2.55;1.85;;;;;;;;;;7312586;19;154500;-15
2022/07/23 00:13:18;;;;;;;3.03;1.65;;;;;;;;;;7312580;19;154865;-15
2022/07/23 00:15:50;;;;;;;2.72;1.92;;;;;;;;;;7312390;19;162308;-15
2022/07/23 00:18:23;;;;;;;4.63;1.70;;;;;;;;;;7310375;19;162849;-15
2022/07/23 00:20:55;;;;;;;3.65;1.90;;;;;;;;;;7312415;19;154466;-15
2022/07/23 00:23:27;;;;;;;3.63;1.80;;;;;;;;;;7311450;19;154185;-15
2022/07/23 00:25:58;;;;;;;3.60;2.15;;;;;;;;;;7311831;19;162750;-15
2022/07/23 00:28:29;;;;;;;3.22;1.80;;;;;;;;;;7311261;19;162936;-15
2022/07/23 00:31:01;;;;;;;3.20;1.67;;;;;;;;;;7312241;19;154547;-16
2022/07/23 00:33:34;;;;;;;2.58;1.83;;;;;;;;;;7311770;19;154522;-15
2022/07/23 00:36:06;;;;;;;9.35;1.95;;;;;;;;;;7309167;19;162212;-15
2022/07/23 00:38:38;;;;;;;2.03;1.85;;;;;;;;;;7310292;19;163286;-15
2022/07/23 00:41:09;;;;;;;4.85;1.85;;;;;;;;;;7311714;19;154623;-15
2022/07/23 00:43:40;;;;;;;4.90;1.98;;;;;;;;;;7311296;19;153905;-15
2022/07/23 00:46:11;;;;;;;2.25;1.67;;;;;;;;;;7311291;19;162337;-15
2022/07/23 00:48:45;;;;;;;2.20;1.60;;;;;;;;;;7309318;19;163248;-15
2022/07/23 00:51:19;;;;;;;3.28;1.98;;;;;;;;;;7311595;19;154444;-15
2022/07/23 00:53:50;;;;;;;6.97;2.05;;;;;;;;;;7311432;19;153963;-18
2022/07/23 00:56:23;;;;;;;2.57;1.80;;;;;;;;;;7310899;19;162239;-16
2022/07/23 00:58:57;;;;;;;2.92;1.80;;;;;;;;;;7312219;19;162791;-16
2022/07/23 01:01:28;;;;;;;2.72;1.40;;;;;;;;;;7317927;19;154458;-16
2022/07/23 01:04:02;;;;;;;4.75;1.80;;;;;;;;;;7317377;19;153937;-16
2022/07/23 01:06:36;;;;;;;2.92;1.60;;;;;;;;;;7317252;19;162212;-17
2022/07/23 01:09:09;;;;;;;2.72;1.90;;;;;;;;;;7315618;19;163216;-16
2022/07/23 01:11:40;;;;;;;4.88;1.60;;;;;;;;;;7317705;19;154498;-15
2022/07/23 01:14:17;;;;;;;4.80;1.83;;;;;;;;;;7317967;19;154115;-15
2022/07/23 01:16:50;;;;;;;3.33;1.90;;;;;;;;;;7315941;19;162290;-16
2022/07/23 01:19:27;;;;;;;4.00;1.58;;;;;;;;;;7317099;19;165248;-16
2022/07/23 01:22:00;;;;;;;5.97;1.80;;;;;;;;;;7317568;19;154425;-16
2022/07/23 01:24:37;;;;;;;5.97;2.20;;;;;;;;;;7315065;19;154567;-16
2022/07/23 01:27:09;;;;;;;3.38;1.85;;;;;;;;;;7315512;19;162272;-15
2022/07/23 01:29:42;;;;;;;2.97;1.52;;;;;;;;;;7315292;19;163173;-15
2022/07/23 01:32:18;;;;;;;6.90;2.13;;;;;;;;;;7315678;19;155049;-15
2022/07/23 01:34:50;;;;;;;4.45;1.88;;;;;;;;;;7316882;19;153941;-15
2022/07/23 01:37:21;;;;;;;5.05;1.90;;;;;;;;;;7316509;19;162166;-15
2022/07/23 01:40:01;;;;;;;6.20;1.92;;;;;;;;;;7314883;19;163504;-15
2022/07/23 01:42:32;;;;;;;1.85;1.45;;;;;;;;;;7316866;19;154516;-14
2022/07/23 01:45:05;;;;;;;3.13;2.15;;;;;;;;;;7314295;19;154011;-15
2022/07/23 01:47:37;;;;;;;3.72;2.08;;;;;;;;;;7314433;19;163663;-16
2022/07/23 01:50:10;;;;;;;3.17;1.42;;;;;;;;;;7314440;19;163253;-16
2022/07/23 01:52:59;;;;;;;4.90;1.75;;;;;;;;;;7316747;19;154449;-15
2022/07/23 01:55:33;;;;;;;2.95;1.63;;;;;;;;;;7315028;19;154611;-16
2022/07/23 01:58:06;;;;;;;4.00;1.58;;;;;;;;;;7314569;19;162321;-18
2022/07/23 02:00:37;;;;;;;4.82;1.63;;;;;;;;;;7314329;19;162831;-15
2022/07/23 02:03:09;;;;;;;5.55;1.73;;;;;;;;;;7314965;19;154454;-15
2022/07/23 02:05:40;;;;;;;3.55;2.13;;;;;;;;;;7315027;19;154072;-15
2022/07/23 02:08:11;;;;;;;5.20;1.92;;;;;;;;;;7314437;19;162347;-15
2022/07/23 02:10:45;;;;;;;3.55;1.83;;;;;;;;;;7312059;19;162851;-15
2022/07/23 02:13:17;;;;;;;1.75;1.63;;;;;;;;;;7314622;19;154690;-15
2022/07/23 02:15:49;;;;;;;6.20;2.50;;;;;;;;;;7314553;19;154693;-15
2022/07/23 02:18:21;;;;;;;;;;;;;;;;;;7314484;19;163063;-14
2022/07/23 02:20:55;;;;;;;3.05;2.03;;;;;;;;;;7315550;19;163542;-15
2022/07/23 02:23:26;;;;;;;5.28;1.85;;;;;;;;;;7315949;19;154534;-15
2022/07/23 02:26:00;;;;;;;4.72;1.75;;;;;;;;;;7313916;19;153569;-15
2022/07/23 02:28:32;;;;;;;2.58;1.50;;;;;;;;;;7313445;19;162259;-15
2022/07/23 02:31:03;;;;;;;3.60;1.50;;;;;;;;;;7313849;19;162928;-15
2022/07/23 02:33:35;;;;;;;2.60;1.80;;;;;;;;;;7315700;19;154550;-16
2022/07/23 02:36:06;;;;;;;2.38;1.70;;;;;;;;;;7315465;19;153959;-16
2022/07/23 02:38:37;;;;;;;1.75;1.50;;;;;;;;;;7313506;19;162399;-15
2022/07/23 02:41:12;;;;;;;3.30;1.80;;;;;;;;;;7313568;19;162989;-16
2022/07/23 02:43:44;;;;;;;3.25;1.70;;;;;;;;;;7313895;19;155016;-15
2022/07/23 02:46:17;;;;;;;2.22;1.75;;;;;;;;;;7312004;19;154542;-15
2022/07/23 02:48:52;;;;;;;1.80;1.57;;;;;;;;;;7313090;19;162291;-15
2022/07/23 02:51:23;;;;;;;2.05;1.80;;;;;;;;;;7312958;19;162932;-15
2022/07/23 02:54:00;;;;;;;6.38;1.70;;;;;;;;;;7313662;19;154992;-15
2022/07/23 02:56:34;;;;;;;2.85;1.50;;;;;;;;;;7313636;19;154380;-15
2022/07/23 02:59:05;;;;;;;3.97;1.60;;;;;;;;;;7314906;19;162693;-15
2022/07/23 03:01:38;;;;;;;4.38;1.70;;;;;;;;;;7312598;19;163305;-15
2022/07/23 03:04:10;;;;;;;2.53;1.50;;;;;;;;;;7312970;19;154615;-16
2022/07/23 03:06:41;;;;;;;3.38;1.50;;;;;;;;;;7311283;19;153987;-16
2022/07/23 03:09:12;;;;;;;3.85;1.77;;;;;;;;;;7314122;19;162423;-16
2022/07/23 03:11:47;;;;;;;6.90;2.10;;;;;;;;;;7312312;19;163442;-16
2022/07/23 03:14:19;;;;;;;3.45;1.60;;;;;;;;;;7312717;19;154576;-16
2022/07/23 03:16:50;;;;;;;2.25;1.60;;;;;;;;;;7312676;19;154408;-16
2022/07/23 03:19:23;;;;;;;3.38;1.80;;;;;;;;;;7312469;19;163015;-16
2022/07/23 03:21:55;;;;;;;2.78;1.50;;;;;;;;;;7311619;19;162875;-16
2022/07/23 03:24:53;;;;;;;3.95;1.52;;;;;;;;;;7312458;19;154491;-22
2022/07/23 03:27:32;;;;;;;6.78;1.90;;;;;;;;;;7310181;19;154322;-16
2022/07/23 03:30:04;;;;;;;2.38;1.60;;;;;;;;;;7309673;19;162218;-16
2022/07/23 03:32:40;;;;;;;3.28;1.90;;;;;;;;;;7311801;19;162962;-17
2022/07/23 03:35:12;;;;;;;5.32;1.67;;;;;;;;;;7313842;19;154508;-17
2022/07/23 03:37:52;;;;;;;4.28;1.58;;;;;;;;;;7312031;19;154000;-17
2022/07/23 03:40:23;;;;;;;1.60;1.30;;;;;;;;;;7311520;19;162773;-17
2022/07/23 03:42:57;;;;;;;3.72;1.20;;;;;;;;;;7311605;19;162912;-17
2022/07/23 03:45:28;;;;;;;2.53;1.90;;;;;;;;;;7311975;19;154639;-17
2022/07/23 03:48:00;;;;;;;2.15;1.40;;;;;;;;;;7311981;19;154134;-17
2022/07/23 03:50:32;;;;;;;4.30;1.98;;;;;;;;;;7311508;19;162232;-17
2022/07/23 03:53:03;;;;;;;1.75;1.20;;;;;;;;;;7311349;19;163276;-17
2022/07/23 03:55:36;;;;;;;6.07;1.80;;;;;;;;;;7311610;19;154629;-17
2022/07/23 03:58:10;;;;;;;2.45;1.20;;;;;;;;;;7311509;19;153917;-17
2022/07/23 04:00:42;;;;;;;2.60;1.42;;;;;;;;;;7310975;19;162336;-14
2022/07/23 04:03:13;;;;;;;3.88;1.42;;;;;;;;;;7311184;19;163494;-15
2022/07/23 04:05:46;;;;;;;2.85;1.48;;;;;;;;;;7311368;19;155090;-15
2022/07/23 04:08:18;;;;;;;4.38;1.55;;;;;;;;;;7311101;19;154025;-15
2022/07/23 04:10:54;;;;;;;2.40;2.10;;;;;;;;;;7310725;19;162831;-15
2022/07/23 04:13:28;;;;;;;1.92;1.60;;;;;;;;;;7310745;19;163502;-14
2022/07/23 04:15:59;;;;;;;1.98;1.40;;;;;;;;;;7310858;19;154461;-15
2022/07/23 04:18:31;;;;;;;2.55;1.30;;;;;;;;;;7310887;19;154779;-14
2022/07/23 04:21:12;;;;;;;5.28;1.60;;;;;;;;;;7310553;19;162278;-15
2022/07/23 04:23:44;;;;;;;4.32;1.58;;;;;;;;;;7310381;19;163390;-15
2022/07/23 04:26:17;;;;;;;2.47;1.67;;;;;;;;;;7310511;19;154454;-15
2022/07/23 04:28:53;;;;;;;5.32;1.60;;;;;;;;;;7310986;19;153524;-15
2022/07/23 04:31:24;;;;;;;2.70;1.73;;;;;;;;;;7310528;19;161738;-16
2022/07/23 04:33:55;;;;;;;3.28;1.73;;;;;;;;;;7308463;19;163045;-16
2022/07/23 04:36:27;;;;;;;4.40;2.00;;;;;;;;;;7310503;19;154621;-15
2022/07/23 04:38:58;;;;;;;5.63;1.42;;;;;;;;;;7312025;19;154120;-16
2022/07/23 04:41:29;;;;;;;5.90;1.85;;;;;;;;;;7310027;19;162283;-15
2022/07/23 04:44:03;;;;;;;3.70;1.70;;;;;;;;;;7310081;19;162787;-16
2022/07/23 04:46:35;;;;;;;2.08;1.40;;;;;;;;;;7309772;19;154475;-16
2022/07/23 04:49:07;;;;;;;1.42;1.20;;;;;;;;;;7310315;19;154413;-15
2022/07/23 04:51:38;;;;;;;2.85;2.05;;;;;;;;;;7309872;19;162327;-16
2022/07/23 04:54:09;;;;;;;3.90;1.70;;;;;;;;;;7309336;19;163513;-16
2022/07/23 04:56:41;;;;;;;4.00;1.50;;;;;;;;;;7311503;19;154526;-16
2022/07/23 04:59:14;;;;;;;2.78;1.35;;;;;;;;;;7309669;19;154285;-15
2022/07/23 05:01:47;;;;;;;5.05;1.88;;;;;;;;;;7309467;19;162720;-17
2022/07/23 05:04:18;;;;;;;3.50;1.65;;;;;;;;;;7308974;19;162983;-16
2022/07/23 05:06:50;;;;;;;2.13;1.43;;;;;;;;;;7309114;19;154554;-15
2022/07/23 05:09:21;;;;;;;4.53;1.80;;;;;;;;;;7309361;19;154489;-15
2022/07/23 05:11:54;;;;;;;1.98;1.45;;;;;;;;;;7309111;19;162644;-16
2022/07/23 05:14:28;;;;;;;2.93;1.50;;;;;;;;;;7308958;19;163171;-16
2022/07/23 05:17:00;;;;;;;1.52;1.25;;;;;;;;;;7310914;19;154855;-15
2022/07/23 05:19:31;;;;;;;2.53;1.55;;;;;;;;;;7309415;19;153500;-15
2022/07/23 05:22:02;;;;;;;4.10;1.33;;;;;;;;;;7308749;19;161882;-15
2022/07/23 05:24:34;;;;;;;2.90;1.40;;;;;;;;;;7310363;19;162812;-16
2022/07/23 05:27:06;;;;;;;1.70;1.47;;;;;;;;;;7308508;19;155022;-16
2022/07/23 05:29:40;;;;;;;3.55;1.52;;;;;;;;;;7308771;19;154039;-15
2022/07/23 05:32:12;;;;;;;2.60;1.40;;;;;;;;;;7308251;19;162206;-17
2022/07/23 05:34:50;;;;;;;2.08;1.60;;;;;;;;;;7308051;19;163308;-17
2022/07/23 05:37:21;;;;;;;2.95;1.42;;;;;;;;;;7308887;19;154965;-17
2022/07/23 05:39:53;;;;;;;2.03;1.65;;;;;;;;;;7309877;19;154333;-17
2022/07/23 05:42:24;;;;;;;3.72;1.50;;;;;;;;;;7309627;19;162262;-17
2022/07/23 05:44:58;;;;;;;3.92;1.45;;;;;;;;;;7310954;19;162869;-17
2022/07/23 05:47:30;;;;;;;2.08;1.70;;;;;;;;;;7314697;19;155295;-17
2022/07/23 05:50:01;;;;;;;2.42;1.75;;;;;;;;;;7315228;19;153896;-16
2022/07/23 05:52:43;;;;;;;1.83;1.30;;;;;;;;;;7314660;19;162331;-16
2022/07/23 05:55:33;;;;;;;2.00;1.48;;;;;;;;;;7314508;19;163418;-17
2022/07/23 05:58:04;;;;;;;4.30;1.38;;;;;;;;;;7314850;19;154812;-17
2022/07/23 06:00:40;;;;;;;4.30;1.98;;;;;;;;;;7315098;19;154021;-16
2022/07/23 06:03:11;;;;;;;5.20;1.98;;;;;;;;;;7314519;19;162412;-16
2022/07/23 06:05:42;;;;;;;1.90;1.63;;;;;;;;;;7315650;19;163262;-17
2022/07/23 06:08:13;;;;;;;4.40;1.60;;;;;;;;;;7313472;19;154545;-17
2022/07/23 06:10:47;;;;;;;1.58;1.40;;;;;;;;;;7314714;19;153456;-16
2022/07/23 06:13:20;;;;;;;4.55;2.13;;;;;;;;;;7315579;19;162243;-17
2022/07/23 06:15:54;;;;;;;1.80;1.70;;;;;;;;;;7315293;19;163217;-16
2022/07/23 06:18:25;;;;;;;1.95;1.73;;;;;;;;;;7316214;19;154534;-16
2022/07/23 06:20:57;;;;;;;2.67;1.75;;;;;;;;;;7314640;19;154034;-17
2022/07/23 06:23:30;;;;;;;2.63;1.48;;;;;;;;;;7313687;19;162903;-16
2022/07/23 06:26:01;;;;;;;5.25;1.83;;;;;;;;;;7313717;19;163301;-16
2022/07/23 06:28:35;;;;;;;3.20;1.83;;;;;;;;;;7314143;19;154509;-17
2022/07/23 06:31:10;;;;;;;3.53;1.90;;;;;;;;;;7315548;19;154502;-16
2022/07/23 06:33:41;;;;;;;3.22;1.80;;;;;;;;;;7314868;19;162989;-16
2022/07/23 06:36:12;;;;;;;2.78;1.85;;;;;;;;;;7313203;19;163397;-16
2022/07/23 06:38:44;;;;;;;5.45;1.90;;;;;;;;;;7314879;19;155083;-17
2022/07/23 06:41:15;;;;;;;3.97;1.90;;;;;;;;;;7313517;19;154128;-16
2022/07/23 06:43:46;;;;;;;3.08;1.50;;;;;;;;;;7314180;19;162205;-18
2022/07/23 06:46:22;;;;;;;3.13;2.08;;;;;;;;;;7312776;19;163292;-17
2022/07/23 06:48:54;;;;;;;2.10;1.65;;;;;;;;;;7312236;19;154806;-16
2022/07/23 06:51:25;;;;;;;1.98;1.58;;;;;;;;;;7313258;19;154039;-16
2022/07/23 06:53:57;;;;;;;2.33;1.52;;;;;;;;;;7313068;19;163387;-16
2022/07/23 06:56:29;;;;;;;7.15;1.90;;;;;;;;;;7313147;19;162892;-16
2022/07/23 06:59:01;;;;;;;1.70;1.60;;;;;;;;;;7314867;19;154456;-17
2022/07/23 07:01:35;;;;;;;1.77;1.40;;;;;;;;;;7314658;19;153920;-16
2022/07/23 07:04:06;;;;;;;5.18;1.60;;;;;;;;;;7314647;19;162280;-16
2022/07/23 07:06:38;;;;;;;4.43;1.77;;;;;;;;;;7314220;19;163400;-17
2022/07/23 07:09:09;;;;;;;3.45;1.75;;;;;;;;;;7312996;19;154548;-17
2022/07/23 07:11:43;;;;;;;4.13;2.05;;;;;;;;;;7312609;19;154024;-16
2022/07/23 07:14:14;;;;;;;3.38;1.45;;;;;;;;;;7313864;19;162441;-17
2022/07/23 07:16:48;;;;;;;2.63;1.83;;;;;;;;;;7313901;19;162797;-16
2022/07/23 07:19:20;;;;;;;2.75;1.73;;;;;;;;;;7312707;19;154580;-17
2022/07/23 07:21:51;;;;;;;4.72;2.00;;;;;;;;;;7314050;19;154421;-17
2022/07/23 07:24:22;;;;;;;5.28;2.10;;;;;;;;;;7313805;19;162662;-17
2022/07/23 07:26:56;;;;;;;4.55;1.85;;;;;;;;;;7313649;19;162724;-17
2022/07/23 07:29:28;;;;;;;2.60;1.73;;;;;;;;;;7312322;19;154790;-16
2022/07/23 07:32:02;;;;;;;3.63;1.85;;;;;;;;;;7313742;19;153421;-17
2022/07/23 07:34:33;;;;;;;3.20;1.60;;;;;;;;;;7313009;19;162253;-15
2022/07/23 07:37:05;;;;;;;2.28;1.48;;;;;;;;;;7313543;19;162771;-16
2022/07/23 07:39:36;;;;;;;4.53;1.63;;;;;;;;;;7312100;19;154472;-14
2022/07/23 07:42:08;;;;;;;4.78;2.00;;;;;;;;;;7312197;19;153993;-16
2022/07/23 07:44:39;;;;;;;3.80;1.80;;;;;;;;;;7313263;19;162628;-16
2022/07/23 07:47:13;;;;;;;5.20;2.03;;;;;;;;;;7313212;19;162773;-16
2022/07/23 07:49:45;;;;;;;3.13;2.20;;;;;;;;;;7311906;19;154478;-16
2022/07/23 07:52:18;;;;;;;2.33;1.90;;;;;;;;;;7313729;19;154041;-15
2022/07/23 07:54:51;;;;;;;2.35;1.73;;;;;;;;;;7313131;19;162789;-15
2022/07/23 07:57:23;;;;;;;6.30;2.38;;;;;;;;;;7313193;19;162835;-16
2022/07/23 07:59:56;;;;;;;2.47;1.60;;;;;;;;;;7312981;19;154467;-15
2022/07/23 08:02:41;;;;;;;7.65;1.67;;;;;;;;;;7312793;19;154016;-16
2022/07/23 08:05:12;;;;;;;;;;;;;;;;;;7313223;19;162311;-16
2022/07/23 08:07:44;;;;;;;5.68;1.80;;;;;;;;;;7312025;19;162907;-17
2022/07/23 08:10:17;;;;;;;3.25;1.58;;;;;;;;;;7309354;19;154885;-16
2022/07/23 08:12:50;;;;;;;4.05;1.90;;;;;;;;;;7312744;19;154088;-16
2022/07/23 08:15:23;;;;;;;1.90;1.65;;;;;;;;;;7312443;19;162248;-16
2022/07/23 08:17:57;;;;;;;3.97;1.60;;;;;;;;;;7312267;19;162869;-17
2022/07/23 08:20:29;;;;;;;2.65;1.63;;;;;;;;;;7312684;19;154392;-16
2022/07/23 08:23:02;;;;;;;4.20;1.70;;;;;;;;;;7312702;19;154051;-16
2022/07/23 08:25:33;;;;;;;;;;;;;;;;;;7312792;19;161992;-17
2022/07/23 08:28:07;;;;;;;1.50;1.40;;;;;;;;;;7311915;19;163551;-16
2022/07/23 08:30:40;;;;;;;2.20;1.60;;;;;;;;;;7309658;19;154488;-16
2022/07/23 08:33:19;;;;;;;2.08;1.58;;;;;;;;;;7311685;19;133088;-16
2022/07/23 08:35:52;;;;;;;1.40;1.30;;;;;;;;;;7311971;19;162270;-16
2022/07/23 08:38:24;;;;;;;2.78;1.40;;;;;;;;;;7311835;19;163199;-16
2022/07/23 08:40:58;;;;;;;4.32;1.42;;;;;;;;;;7311504;19;154471;-16
2022/07/23 08:43:32;;;;;;;2.13;1.45;;;;;;;;;;7312609;19;154005;-16
2022/07/23 08:46:05;;;;;;;3.40;1.67;;;;;;;;;;7310548;19;162583;-17
2022/07/23 08:48:38;;;;;;;;;;;;;;;;;;7312271;19;162850;-17
2022/07/23 08:51:10;;;;;;;;;;;;;;;;;;7309841;19;154582;-17
2022/07/23 08:53:41;;;;;;;1.55;1.45;;;;;;;;;;7311810;19;153856;-17
2022/07/23 08:56:13;;;;;;;1.40;1.30;;;;;;;;;;7311307;19;162434;-17
2022/07/23 08:58:44;;;;;;;2.20;1.20;;;;;;;;;;7311230;19;162343;-16
2022/07/23 09:01:17;;;;;;;1.88;1.27;;;;;;;;;;7311670;19;154581;-18
2022/07/23 09:03:51;;;;;;;2.05;1.20;;;;;;;;;;7311367;19;153969;-16
2022/07/23 09:06:22;;;;;;;2.75;1.30;;;;;;;;;;7310101;19;162764;-16
2022/07/23 09:08:53;;;;;;;4.13;1.30;;;;;;;;;;7310414;19;163001;-16
2022/07/23 09:11:25;;;;;;;1.77;1.17;;;;;;;;;;7308506;19;154462;-17
2022/07/23 09:13:59;;;;;;;2.00;1.20;;;;;;;;;;7308461;19;154087;-17
2022/07/23 09:16:32;;;;;;;2.53;1.35;;;;;;;;;;7311105;19;162347;-16
2022/07/23 09:19:07;;;;;;;1.35;1.08;;;;;;;;;;7309641;19;163002;-16
2022/07/23 09:21:39;;;;;;;3.22;1.50;;;;;;;;;;7317281;19;154509;-16
2022/07/23 09:24:11;;;;;;;5.43;1.50;;;;;;;;;;7315932;19;154392;-17
2022/07/23 09:26:46;;;;;;;3.00;1.50;;;;;;;;;;7317714;19;162276;-16
2022/07/23 09:29:20;;;;;;;3.45;1.65;;;;;;;;;;7315593;19;162868;-16
2022/07/23 09:31:54;;;;;;;2.78;1.60;;;;;;;;;;7315071;19;155026;-16
2022/07/23 09:34:30;;;;;;;4.63;1.77;;;;;;;;;;7317246;19;154340;-17
2022/07/23 09:37:13;;;;;;;1.30;1.02;;;;;;;;;;7315166;19;162417;-16
2022/07/23 09:39:45;;;;;;;5.75;2.00;;;;;;;;;;7316938;19;162759;-16
2022/07/23 09:42:19;;;;;;;3.80;1.85;;;;;;;;;;7317074;19;154475;-16
2022/07/23 09:44:51;;;;;;;2.45;1.20;;;;;;;;;;7316652;19;154318;-17
2022/07/23 09:47:24;;;;;;;3.30;1.30;;;;;;;;;;7315387;19;162279;-16
2022/07/23 09:50:08;;;;;;;4.40;1.48;;;;;;;;;;7315762;19;162893;-17
2022/07/23 09:52:47;;;;;;;4.70;1.50;;;;;;;;;;7314557;19;154886;-17
2022/07/23 09:55:20;;;;;;;1.50;1.40;;;;;;;;;;7315955;19;154427;-17
2022/07/23 09:57:53;;;;;;;4.63;1.50;;;;;;;;;;7315632;19;162915;-17
2022/07/23 10:00:26;;;;;;;4.40;1.65;;;;;;;;;;7315489;19;162679;-16
2022/07/23 10:02:58;;;;;;;2.80;1.20;;;;;;;;;;7316020;19;154632;-16
2022/07/23 10:05:36;;;;;;;4.18;1.63;;;;;;;;;;7316883;19;153941;-16
2022/07/23 10:08:14;;;;;;;2.70;1.10;;;;;;;;;;7314816;19;162219;-16
2022/07/23 10:10:45;;;;;;;3.40;1.60;;;;;;;;;;7314892;19;162848;-16
2022/07/23 10:16:19;;;;;;;4.43;1.70;;;;;;;;;;7314280;19;154062;-16
2022/07/23 10:18:51;;;;;;;4.60;1.75;;;;;;;;;;7315718;19;161813;-16
2022/07/23 10:21:39;;;;;;;2.83;1.67;;;;;;;;;;7315832;19;162796;-16
2022/07/23 10:24:20;;;;;;;5.80;1.48;;;;;;;;;;7315822;19;154465;-16
2022/07/23 10:27:04;;;;;;;2.58;1.50;;;;;;;;;;7314405;19;153929;-16
2022/07/23 10:29:48;;;;;;;3.45;1.20;;;;;;;;;;7313519;19;162225;-16
2022/07/23 10:32:29;;;;;;;3.22;1.10;;;;;;;;;;7310554;19;163204;-16
2022/07/23 10:35:11;;;;;;;3.22;1.55;;;;;;;;;;7315509;19;155080;-16
2022/07/23 10:37:49;;;;;;;3.17;1.30;;;;;;;;;;7315318;19;154449;-16
2022/07/23 10:40:22;;;;;;;2.70;1.10;;;;;;;;;;7315020;19;162879;-16
2022/07/23 10:42:55;;;;;;;10.10;1.70;;;;;;;;;;7314875;19;163320;-16
2022/07/23 10:45:33;;;;;;;1.45;1.25;;;;;;;;;;7315206;19;154477;-16
2022/07/23 10:48:19;;;;;;;2.38;1.55;;;;;;;;;;7314872;19;153900;-18
2022/07/23 10:51:10;;;;;;;3.40;1.50;;;;;;;;;;7313817;19;162247;-17
2022/07/23 10:54:00;;;;;;;4.22;1.45;;;;;;;;;;7314819;19;163234;-15
2022/07/23 10:56:53;;;;;;;3.63;1.55;;;;;;;;;;7314724;19;154419;-16
2022/07/23 10:59:24;;;;;;;6.90;1.67;;;;;;;;;;7314928;19;154403;-16
2022/07/23 11:01:55;;;;;;;1.50;1.40;;;;;;;;;;7314011;19;162295;-16
2022/07/23 11:04:51;;;;;;;3.60;1.63;;;;;;;;;;7313690;19;162793;-18
2022/07/23 11:07:22;;;;;;;1.83;1.15;;;;;;;;;;7314722;19;154951;-16
2022/07/23 11:09:56;;;;;;;4.97;1.48;;;;;;;;;;7314616;19;153474;-16
2022/07/23 11:12:37;;;;;;;2.05;1.50;;;;;;;;;;7311962;19;162240;-16
2022/07/23 11:15:11;;;;;;;3.15;1.50;;;;;;;;;;7313715;19;162869;-16
2022/07/23 11:18:02;;;;;;;4.63;1.67;;;;;;;;;;7314545;19;154435;-16
2022/07/23 11:20:33;;;;;;;3.45;1.40;;;;;;;;;;7314346;19;154022;-17
2022/07/23 11:23:04;;;;;;;4.75;1.58;;;;;;;;;;7313687;19;162714;-15
2022/07/23 11:25:41;;;;;;;3.70;1.40;;;;;;;;;;7313599;19;162920;-16
2022/07/23 11:28:16;;;;;;;4.85;1.63;;;;;;;;;;7313697;19;154685;-16
2022/07/23 11:30:48;;;;;;;3.50;1.30;;;;;;;;;;7312335;19;154491;-16
2022/07/23 11:33:21;;;;;;;1.77;1.20;;;;;;;;;;7313384;19;162361;-16
2022/07/23 11:36:04;;;;;;;4.55;1.30;;;;;;;;;;7313286;19;163448;-16
2022/07/23 11:38:36;;;;;;;1.80;1.25;;;;;;;;;;7313808;19;154481;-17
2022/07/23 11:41:11;;;;;;;2.45;1.33;;;;;;;;;;7313586;19;153902;-15
2022/07/23 11:43:42;;;;;;;4.60;1.60;;;;;;;;;;7312801;19;162697;-16
2022/07/23 11:46:14;;;;;;;3.42;1.30;;;;;;;;;;7313173;19;162761;-16
2022/07/23 11:48:45;;;;;;;4.43;1.30;;;;;;;;;;7313146;19;154473;-16
2022/07/23 11:51:28;;;;;;;2.35;1.40;;;;;;;;;;7312333;19;154035;-16
2022/07/23 11:54:08;;;;;;;3.65;1.30;;;;;;;;;;7312546;19;162672;-16
2022/07/23 11:56:58;;;;;;;4.50;1.70;;;;;;;;;;7312428;19;162743;-14
2022/07/23 11:59:31;;;;;;;4.72;1.60;;;;;;;;;;7313059;19;154411;-17
2022/07/23 12:02:06;;;;;;;5.07;2.00;;;;;;;;;;7312790;19;154588;-16
2022/07/23 12:04:41;;;;;;;9.95;3.38;;;;;;;;;;7312081;19;162663;-16
2022/07/23 12:07:29;;;;;;;5.20;2.83;;;;;;;;;;7311552;19;162959;-16
2022/07/23 12:10:02;;;;;;;7.25;2.60;;;;;;;;;;7312869;19;155324;-16
2022/07/23 12:12:41;;;;;;;4.55;2.33;;;;;;;;;;7311283;19;154004;-16
2022/07/23 12:15:14;;;;;;;5.07;2.33;;;;;;;;;;7312407;19;162328;-16
2022/07/23 12:17:49;;;;;;;5.28;2.20;;;;;;;;;;7310951;19;162764;-16
2022/07/23 12:20:24;;;;;;;6.57;2.00;;;;;;;;;;7311552;19;154514;-16
2022/07/23 12:22:59;;;;;;;6.88;2.45;;;;;;;;;;7311384;19;153877;-17
2022/07/23 12:25:33;;;;;;;4.32;2.50;;;;;;;;;;7310875;19;162860;-16
2022/07/23 12:28:09;;;;;;;7.25;2.67;;;;;;;;;;7310972;19;163272;-16
2022/07/23 12:30:43;;;;;;;5.40;2.03;;;;;;;;;;7307952;19;155003;-16
2022/07/23 12:33:15;;;;;;;3.72;2.10;;;;;;;;;;7308497;19;154661;-17
2022/07/23 12:35:48;;;;;;;3.80;1.73;;;;;;;;;;7310463;19;162778;-16
2022/07/23 12:38:22;;;;;;;5.70;2.03;;;;;;;;;;7310598;19;163168;-16
2022/07/23 12:40:54;;;;;;;4.20;1.67;;;;;;;;;;7310593;19;154455;-16
2022/07/23 12:43:30;;;;;;;7.30;1.67;;;;;;;;;;7309175;19;153543;-16
2022/07/23 12:46:07;;;;;;;4.47;1.85;;;;;;;;;;7309278;19;162303;-16
2022/07/23 12:48:41;;;;;;;6.20;2.17;;;;;;;;;;7309625;19;162932;-17
2022/07/23 12:51:18;;;;;;;2.78;1.40;;;;;;;;;;7310821;19;154510;-17
2022/07/23 12:53:53;;;;;;;9.48;1.52;;;;;;;;;;7308069;19;154025;-16
2022/07/23 12:56:29;;;;;;;4.55;1.80;;;;;;;;;;7308905;19;162822;-16
2022/07/23 12:59:10;;;;;;;3.67;2.00;;;;;;;;;;7307778;19;164067;-16
2022/07/23 13:01:42;;;;;;;6.13;1.45;;;;;;;;;;7309451;19;155080;-16
2022/07/23 13:04:14;;;;;;;;;;;;;;;;;;7310181;19;154400;-17
2022/07/23 13:06:47;;;;;;;3.88;1.95;;;;;;;;;;7311090;19;162499;-17
2022/07/23 13:09:21;;;;;;;4.35;1.98;;;;;;;;;;7309580;19;163239;-17
2022/07/23 13:11:53;;;;;;;2.90;1.75;;;;;;;;;;7309990;19;154412;-17
2022/07/23 13:14:28;;;;;;;6.57;2.00;;;;;;;;;;7308932;19;154036;-17
2022/07/23 13:16:59;;;;;;;2.70;1.98;;;;;;;;;;7308809;19;162201;-16
2022/07/23 13:19:30;;;;;;;3.72;1.92;;;;;;;;;;7309685;19;162825;-16
2022/07/23 13:22:01;;;;;;;3.03;1.60;;;;;;;;;;7308780;19;155012;-17
2022/07/23 13:24:38;;;;;;;3.97;1.60;;;;;;;;;;7309452;19;154003;-17
2022/07/23 13:27:10;;;;;;;2.53;1.70;;;;;;;;;;7310959;19;162268;-17
2022/07/23 13:29:44;;;;;;;6.53;1.85;;;;;;;;;;7305700;19;163249;-16
2022/07/23 13:32:15;;;;;;;4.40;2.03;;;;;;;;;;7310052;19;154532;-17
2022/07/23 13:34:47;;;;;;;4.18;2.35;;;;;;;;;;7308352;19;154331;-17
2022/07/23 13:37:18;;;;;;;2.83;2.00;;;;;;;;;;7308032;19;162309;-17
2022/07/23 13:39:49;;;;;;;3.88;1.90;;;;;;;;;;7309800;19;162888;-32
2022/07/23 13:42:20;;;;;;;3.97;2.08;;;;;;;;;;7307641;19;154710;-17
2022/07/23 13:44:54;;;;;;;2.03;1.67;;;;;;;;;;7306171;19;154268;-27
2022/07/23 13:47:26;;;;;;;3.08;1.75;;;;;;;;;;7307577;19;162340;-16
2022/07/23 13:49:57;;;;;;;4.22;1.63;;;;;;;;;;7307500;19;163282;-17
2022/07/23 13:52:28;;;;;;;4.88;1.80;;;;;;;;;;7307969;19;154452;-16
2022/07/23 13:54:59;;;;;;;4.80;1.90;;;;;;;;;;7308448;19;154074;-17
2022/07/23 13:57:31;;;;;;;5.18;2.13;;;;;;;;;;7307925;19;162246;-17
2022/07/23 14:00:07;;;;;;;4.20;1.70;;;;;;;;;;7307372;19;162696;-17
2022/07/23 14:02:39;;;;;;;3.03;1.95;;;;;;;;;;7308269;19;154449;-16
2022/07/23 14:05:12;;;;;;;3.58;2.42;;;;;;;;;;7308291;19;154000;-17
2022/07/23 14:07:44;;;;;;;10.68;2.22;;;;;;;;;;7311470;19;162846;-17
2022/07/23 14:10:16;;;;;;;2.93;1.80;;;;;;;;;;7314646;19;162750;-17
2022/07/23 14:12:47;;;;;;;4.82;2.13;;;;;;;;;;7314793;19;154530;-17
2022/07/23 14:15:21;;;;;;;3.25;1.90;;;;;;;;;;7315312;19;153982;-17
2022/07/23 14:17:53;;;;;;;4.00;2.10;;;;;;;;;;7314568;19;162273;-17
2022/07/23 14:20:25;;;;;;;7.05;2.20;;;;;;;;;;7314778;19;162890;-17
2022/07/23 14:23:00;;;;;;;4.13;2.37;;;;;;;;;;7314774;19;154840;-17
2022/07/23 14:25:31;;;;;;;4.78;2.15;;;;;;;;;;7313545;19;154026;-17
2022/07/23 14:28:02;;;;;;;4.15;1.90;;;;;;;;;;7313785;19;162174;-17
2022/07/23 14:30:36;;;;;;;5.20;2.10;;;;;;;;;;7311585;19;162825;-17
2022/07/23 14:33:07;;;;;;;4.35;2.10;;;;;;;;;;7314070;19;154328;-16
2022/07/23 14:35:41;;;;;;;3.53;1.88;;;;;;;;;;7314276;19;153993;-17
2022/07/23 14:38:12;;;;;;;2.97;2.00;;;;;;;;;;7313729;19;162290;-17
2022/07/23 14:40:44;;;;;;;4.85;1.98;;;;;;;;;;7312375;19;163433;-16
2022/07/23 14:43:15;;;;;;;5.10;2.05;;;;;;;;;;7311955;19;154187;-17
2022/07/23 14:45:49;;;;;;;4.72;2.10;;;;;;;;;;7314427;19;154052;-17
2022/07/23 14:48:20;;;;;;;4.70;2.10;;;;;;;;;;7315752;19;162289;-17
2022/07/23 14:50:51;;;;;;;4.38;2.20;;;;;;;;;;7312841;19;162910;-16
2022/07/23 14:53:22;;;;;;;5.78;2.35;;;;;;;;;;7314166;19;154399;-17
2022/07/23 14:55:55;;;;;;;3.28;1.83;;;;;;;;;;7315090;19;154731;-17
2022/07/23 14:58:27;;;;;;;3.50;2.03;;;;;;;;;;7312681;19;162227;-16
2022/07/23 15:01:01;;;;;;;3.30;2.05;;;;;;;;;;7313308;19;162870;-17
2022/07/23 15:03:33;;;;;;;5.68;1.80;;;;;;;;;;7312741;19;155102;-17
2022/07/23 15:06:04;;;;;;;11.43;2.75;;;;;;;;;;7314305;19;153523;-17
2022/07/23 15:08:35;;;;;;;7.70;2.10;;;;;;;;;;7314503;19;162286;-17
2022/07/23 15:11:08;;;;;;;36.58;8.02;;;;;;;;;;7312701;19;162758;-17